Time;durP1;ratioP1;P1;durP2;ratioP2;P2;SDS_P1;SDS_P2;PMS_P1;PMS_P2;Temp;Humidity;BMP_temperature;BMP_pressure;BME280_temperature;BME280_humidity;BME280_pressure;Samples;Min_cycle;Max_cycle;Signal;HPM_P1;HPM_P2
2021/05/29 00:00:47;;;;;;;0.40;0.30;;;14.80;94.10;;;;;;5026916;28;20393;-75
2021/05/29 00:03:13;;;;;;;0.40;0.20;;;14.90;93.80;;;;;;5011191;28;20389;-75
2021/05/29 00:05:39;;;;;;;0.40;0.20;;;14.90;94.30;;;;;;5010224;28;20898;-75
2021/05/29 00:08:05;;;;;;;0.40;0.20;;;14.80;94.10;;;;;;5010836;28;20749;-75
2021/05/29 00:10:31;;;;;;;0.40;0.20;;;14.80;94.40;;;;;;4992952;28;20720;-75
2021/05/29 00:12:57;;;;;;;0.40;0.20;;;14.80;94.50;;;;;;5012429;28;20467;-74
2021/05/29 00:15:23;;;;;;;0.40;0.20;;;14.80;94.60;;;;;;5014161;28;20381;-75
2021/05/29 00:17:49;;;;;;;0.40;0.20;;;14.70;94.90;;;;;;5014989;28;20462;-75
2021/05/29 00:20:14;;;;;;;0.40;0.20;;;14.70;94.30;;;;;;5014934;28;20393;-75
2021/05/29 00:22:40;;;;;;;0.40;0.20;;;14.70;95.50;;;;;;5014244;28;20403;-75
2021/05/29 00:25:06;;;;;;;0.40;0.20;;;14.60;95.20;;;;;;5014884;28;20400;-74
2021/05/29 00:27:32;;;;;;;0.40;0.30;;;14.70;96.80;;;;;;5014239;28;20459;-74
2021/05/29 00:29:57;;;;;;;0.40;0.20;;;14.60;96.50;;;;;;5014834;28;20794;-74
2021/05/29 00:32:23;;;;;;;0.40;0.20;;;14.60;95.60;;;;;;5013950;28;20415;-75
2021/05/29 00:34:48;;;;;;;0.40;0.30;;;14.70;96.20;;;;;;4997052;28;20403;-74
2021/05/29 00:37:14;;;;;;;0.40;0.20;;;14.60;96.30;;;;;;5014549;28;20389;-74
2021/05/29 00:39:40;;;;;;;0.40;0.30;;;14.50;96.40;;;;;;5013966;28;20384;-74
2021/05/29 00:42:06;;;;;;;0.40;0.20;;;14.50;96.40;;;;;;4997040;28;20403;-74
2021/05/29 00:44:58;;;;;;;0.40;0.20;;;14.50;96.40;;;;;;5013868;28;20415;-74
2021/05/29 00:47:28;;;;;;;0.40;0.20;;;14.60;96.40;;;;;;5013960;28;20397;-75
2021/05/29 00:49:58;;;;;;;0.40;0.30;;;14.50;96.60;;;;;;5014495;28;20425;-74
2021/05/29 00:52:24;;;;;;;0.40;0.20;;;14.50;96.60;;;;;;5013281;28;20508;-77
2021/05/29 00:54:51;;;;;;;0.40;0.20;;;14.50;96.90;;;;;;5014410;28;20385;-76
2021/05/29 00:57:17;;;;;;;0.40;0.20;;;14.50;97.30;;;;;;5014460;28;20858;-74
2021/05/29 00:59:43;;;;;;;0.40;0.20;;;14.40;97.50;;;;;;5013199;28;20989;-75
2021/05/29 01:02:12;;;;;;;0.40;0.30;;;14.50;96.90;;;;;;5014216;28;20380;-76
2021/05/29 01:04:37;;;;;;;0.40;0.20;;;14.50;97.20;;;;;;5013264;28;20767;-74
2021/05/29 01:07:08;;;;;;;0.40;0.20;;;14.50;97.40;;;;;;5014050;28;20377;-74
2021/05/29 01:09:36;;;;;;;0.40;0.30;;;14.50;97.00;;;;;;5013626;28;20716;-74
2021/05/29 01:12:04;;;;;;;0.40;0.20;;;14.50;97.90;;;;;;5013504;28;20413;-74
2021/05/29 01:14:31;;;;;;;0.40;0.20;;;14.40;98.30;;;;;;5013173;28;20381;-74
2021/05/29 01:17:03;;;;;;;0.40;0.20;;;14.40;97.80;;;;;;5013893;28;20395;-74
2021/05/29 01:19:29;;;;;;;0.40;0.20;;;14.40;98.10;;;;;;5013256;28;20385;-74
2021/05/29 01:21:56;;;;;;;0.40;0.20;;;14.40;98.40;;;;;;5013843;28;20388;-74
2021/05/29 01:24:25;;;;;;;0.40;0.25;;;14.40;99.90;;;;;;5013223;28;20485;-73
2021/05/29 01:26:52;;;;;;;0.40;0.20;;;14.40;98.30;;;;;;5013737;28;20417;-74
2021/05/29 01:29:19;;;;;;;0.40;0.30;;;14.40;98.40;;;;;;5013839;28;20452;-73
2021/05/29 01:31:50;;;;;;;0.40;0.20;;;14.40;99.00;;;;;;5012768;28;20423;-74
2021/05/29 01:34:20;;;;;;;0.40;0.20;;;14.30;99.40;;;;;;4996029;28;20473;-74
2021/05/29 01:36:48;;;;;;;0.40;0.30;;;14.30;99.40;;;;;;5012647;28;20420;-74
2021/05/29 01:39:13;;;;;;;0.40;0.20;;;14.20;98.70;;;;;;4995890;28;20483;-73
2021/05/29 01:41:39;;;;;;;0.40;0.30;;;14.20;98.50;;;;;;5012576;28;20420;-74
2021/05/29 01:44:08;;;;;;;0.40;0.30;;;14.30;98.40;;;;;;5013079;28;20388;-74
2021/05/29 01:46:34;;;;;;;0.40;0.20;;;14.20;98.80;;;;;;5012729;28;20384;-75
2021/05/29 01:49:00;;;;;;;0.40;0.30;;;14.20;98.70;;;;;;5013497;28;20434;-75
2021/05/29 01:51:26;;;;;;;0.40;0.20;;;14.10;98.80;;;;;;4995383;28;20759;-75
2021/05/29 01:53:53;;;;;;;0.40;0.20;;;14.00;99.70;;;;;;5013327;28;20406;-75
2021/05/29 01:56:18;;;;;;;0.40;0.20;;;14.00;98.90;;;;;;5012942;28;20405;-75
2021/05/29 01:58:45;;;;;;;0.40;0.20;;;14.10;99.90;;;;;;5012659;28;20400;-74
2021/05/29 02:01:12;;;;;;;0.40;0.20;;;14.00;99.90;;;;;;5020239;28;20383;-75
2021/05/29 02:03:38;;;;;;;0.40;0.20;;;14.00;99.90;;;;;;5032123;28;20379;-75
2021/05/29 02:06:05;;;;;;;0.40;0.20;;;13.90;99.90;;;;;;5032836;28;20387;-75
2021/05/29 02:08:31;;;;;;;0.40;0.20;;;13.90;99.90;;;;;;5032155;28;20375;-75
2021/05/29 02:10:56;;;;;;;0.40;0.20;;;13.90;99.90;;;;;;5032425;28;20445;-74
2021/05/29 02:13:31;;;;;;;0.40;0.20;;;13.90;99.90;;;;;;5032207;28;20419;-74
2021/05/29 02:15:57;;;;;;;0.40;0.20;;;13.80;99.90;;;;;;5032626;28;20395;-74
2021/05/29 02:18:23;;;;;;;0.40;0.30;;;13.70;99.90;;;;;;5032316;28;20383;-75
2021/05/29 02:20:58;;;;;;;0.40;0.30;;;13.70;99.90;;;;;;5031924;28;20387;-75
2021/05/29 02:23:33;;;;;;;0.40;0.22;;;13.60;99.90;;;;;;5032443;28;20398;-74
2021/05/29 02:26:03;;;;;;;0.40;0.20;;;13.60;99.90;;;;;;5032401;28;20383;-75
2021/05/29 02:28:30;;;;;;;0.40;0.20;;;13.50;99.90;;;;;;5032104;28;20404;-75
2021/05/29 02:30:57;;;;;;;0.40;0.20;;;13.00;99.90;;;;;;5032478;28;20470;-75
2021/05/29 02:33:23;;;;;;;0.40;0.20;;;13.50;99.90;;;;;;5014606;28;20421;-75
2021/05/29 02:35:50;;;;;;;0.40;0.30;;;13.40;99.90;;;;;;5031636;28;20652;-75
2021/05/29 02:38:16;;;;;;;0.40;0.20;;;13.40;99.90;;;;;;5032138;28;20442;-75
2021/05/29 02:40:42;;;;;;;0.40;0.20;;;13.40;99.90;;;;;;5031510;28;20388;-75
2021/05/29 02:43:07;;;;;;;0.40;0.20;;;13.40;99.90;;;;;;5031702;28;20859;-75
2021/05/29 02:45:38;;;;;;;0.40;0.20;;;13.30;99.90;;;;;;5031291;28;20379;-75
2021/05/29 02:48:05;;;;;;;0.40;0.20;;;13.30;99.90;;;;;;5032125;28;20375;-75
2021/05/29 02:50:30;;;;;;;0.40;0.30;;;13.30;99.90;;;;;;5030977;28;20414;-77
2021/05/29 02:52:56;;;;;;;0.40;0.20;;;13.30;99.90;;;;;;5031862;28;20415;-75
2021/05/29 02:55:23;;;;;;;0.40;0.20;;;13.30;99.90;;;;;;5031715;28;20875;-75
2021/05/29 02:57:53;;;;;;;0.40;0.20;;;13.30;99.90;;;;;;5031194;28;20549;-75
2021/05/29 03:00:21;;;;;;;0.40;0.20;;;13.30;99.90;;;;;;5031684;28;20792;-74
2021/05/29 03:02:46;;;;;;;0.40;0.20;;;13.20;99.90;;;;;;5011464;28;20385;-75
2021/05/29 03:05:12;;;;;;;0.40;0.20;;;13.30;99.90;;;;;;4994360;28;20388;-75
2021/05/29 03:07:39;;;;;;;0.40;0.20;;;13.10;99.90;;;;;;5011303;28;20420;-75
2021/05/29 03:10:07;;;;;;;0.40;0.20;;;13.20;99.90;;;;;;5011963;28;20400;-75
2021/05/29 03:12:39;;;;;;;0.40;0.20;;;13.10;99.90;;;;;;5011070;28;20423;-75
2021/05/29 03:15:11;;;;;;;0.40;0.20;;;13.10;99.90;;;;;;5011839;28;20412;-75
2021/05/29 03:17:37;;;;;;;0.40;0.20;;;13.10;99.90;;;;;;5011078;28;20383;-74
2021/05/29 03:20:07;;;;;;;0.40;0.20;;;13.60;99.90;;;;;;5011810;28;20735;-74
2021/05/29 03:22:33;;;;;;;0.40;0.20;;;13.00;99.90;;;;;;4993397;28;20419;-76
2021/05/29 03:24:59;;;;;;;0.40;0.20;;;13.00;99.90;;;;;;5011574;28;20464;-74
2021/05/29 03:27:25;;;;;;;0.40;0.20;;;12.90;99.90;;;;;;5011187;28;20472;-75
2021/05/29 03:29:52;;;;;;;0.40;0.20;;;12.90;99.90;;;;;;5011238;28;20879;-74
2021/05/29 03:32:18;;;;;;;0.40;0.20;;;12.80;99.90;;;;;;5011552;28;20408;-74
2021/05/29 03:34:43;;;;;;;0.40;0.20;;;12.70;99.90;;;;;;5010798;28;20472;-74
2021/05/29 03:37:09;;;;;;;0.40;0.20;;;12.70;99.90;;;;;;4994041;28;20902;-74
2021/05/29 03:39:36;;;;;;;0.40;0.20;;;12.70;99.90;;;;;;5010841;28;20752;-74
2021/05/29 03:42:02;;;;;;;0.40;0.20;;;12.70;99.90;;;;;;5011838;28;20380;-74
2021/05/29 03:44:28;;;;;;;0.40;0.20;;;12.70;99.90;;;;;;5011117;28;20471;-75
2021/05/29 03:46:53;;;;;;;0.40;0.20;;;12.60;99.90;;;;;;5010915;28;20673;-75
2021/05/29 03:49:19;;;;;;;0.40;0.20;;;12.60;99.90;;;;;;5017509;28;20463;-74
2021/05/29 03:51:45;;;;;;;0.40;0.20;;;12.60;99.90;;;;;;5017149;28;20424;-74
2021/05/29 03:54:11;;;;;;;0.40;0.30;;;12.60;99.90;;;;;;5019966;28;21093;-74
2021/05/29 03:56:36;;;;;;;0.40;0.20;;;12.60;99.90;;;;;;5018932;28;20383;-75
2021/05/29 03:59:03;;;;;;;0.40;0.30;;;13.30;99.90;;;;;;5016652;28;20885;-75
2021/05/29 04:01:30;;;;;;;0.40;0.20;;;12.60;99.90;;;;;;5002138;28;20404;-75
2021/05/29 04:03:56;;;;;;;0.40;0.20;;;12.70;99.90;;;;;;5012680;28;20457;-75
2021/05/29 04:06:22;;;;;;;0.40;0.20;;;12.70;99.90;;;;;;4995581;28;20749;-76
2021/05/29 04:08:49;;;;;;;0.40;0.20;;;12.80;99.90;;;;;;5014187;28;20393;-75
2021/05/29 04:11:14;;;;;;;0.40;0.20;;;12.80;99.90;;;;;;5012744;28;20383;-75
2021/05/29 04:13:40;;;;;;;0.40;0.20;;;12.80;99.90;;;;;;4993228;28;20451;-75
2021/05/29 04:16:05;;;;;;;0.40;0.30;;;12.80;99.90;;;;;;5013191;28;20808;-75
2021/05/29 04:18:31;;;;;;;0.40;0.20;;;12.70;99.90;;;;;;5012648;28;20812;-75
2021/05/29 04:20:57;;;;;;;0.40;0.20;;;12.80;99.90;;;;;;4997550;28;20749;-76
2021/05/29 04:23:23;;;;;;;0.40;0.20;;;12.80;99.90;;;;;;5012284;28;20480;-75
2021/05/29 04:25:48;;;;;;;0.40;0.30;;;12.90;99.90;;;;;;5010020;28;20686;-75
2021/05/29 04:28:14;;;;;;;0.40;0.20;;;12.90;99.90;;;;;;5013236;28;21732;-75
2021/05/29 04:30:40;;;;;;;0.40;0.20;;;12.90;99.90;;;;;;5013360;28;20386;-75
2021/05/29 04:33:05;;;;;;;0.40;0.20;;;13.00;99.90;;;;;;4998267;28;20946;-75
2021/05/29 04:35:31;;;;;;;0.40;0.20;;;13.00;99.90;;;;;;5012140;28;20420;-74
2021/05/29 04:37:57;;;;;;;0.40;0.20;;;13.00;99.90;;;;;;5013599;28;20929;-74
2021/05/29 04:40:24;;;;;;;0.40;0.30;;;13.00;99.90;;;;;;4994241;28;20938;-75
2021/05/29 04:42:51;;;;;;;0.40;0.30;;;13.00;99.90;;;;;;5012693;28;20467;-75
2021/05/29 04:45:17;;;;;;;0.40;0.20;;;13.00;99.90;;;;;;5025289;28;20417;-74
2021/05/29 04:47:44;;;;;;;0.40;0.30;;;13.10;99.90;;;;;;5036019;28;20508;-74
2021/05/29 04:50:12;;;;;;;0.40;0.30;;;13.10;99.90;;;;;;5036021;28;20399;-74
2021/05/29 04:52:38;;;;;;;0.40;0.20;;;13.10;99.90;;;;;;5036340;28;20407;-74
2021/05/29 04:55:06;;;;;;;0.40;0.20;;;13.20;99.90;;;;;;5035506;28;20402;-74
2021/05/29 04:57:31;;;;;;;0.40;0.20;;;13.20;99.90;;;;;;5018564;28;20745;-74
2021/05/29 04:59:57;;;;;;;0.40;0.20;;;13.20;99.90;;;;;;5032518;28;20383;-73
2021/05/29 05:02:23;;;;;;;0.40;0.20;;;13.30;99.90;;;;;;5016449;28;20456;-76
2021/05/29 05:04:48;;;;;;;0.40;0.20;;;13.30;99.90;;;;;;5013050;28;20737;-76
2021/05/29 05:07:14;;;;;;;0.40;0.20;;;13.40;99.90;;;;;;5013439;28;20384;-76
2021/05/29 05:09:40;;;;;;;0.40;0.20;;;13.50;99.90;;;;;;5013272;28;20384;-78
2021/05/29 05:12:06;;;;;;;0.40;0.20;;;13.40;99.90;;;;;;5013592;28;20408;-76
2021/05/29 05:14:32;;;;;;;0.40;0.20;;;13.50;99.90;;;;;;5013339;28;20434;-76
2021/05/29 05:16:58;;;;;;;0.40;0.30;;;13.50;99.90;;;;;;5012355;28;20943;-76
2021/05/29 05:19:24;;;;;;;0.40;0.20;;;13.50;99.90;;;;;;5012263;28;20423;-75
2021/05/29 05:21:49;;;;;;;0.40;0.30;;;13.20;99.90;;;;;;5012639;28;20492;-75
2021/05/29 05:24:15;;;;;;;0.40;0.30;;;13.30;99.90;;;;;;5010776;28;20387;-76
2021/05/29 05:26:41;;;;;;;0.40;0.20;;;13.40;99.90;;;;;;4992042;28;20411;-77
2021/05/29 05:29:07;;;;;;;0.40;0.20;;;13.50;99.90;;;;;;5008930;28;20486;-75
2021/05/29 05:31:35;;;;;;;0.40;0.20;;;13.50;99.90;;;;;;5011197;28;20405;-74
2021/05/29 05:34:07;;;;;;;0.40;0.20;;;13.50;99.90;;;;;;5010138;28;20424;-76
2021/05/29 05:36:33;;;;;;;0.50;0.50;;;13.60;99.90;;;;;;5009995;28;21290;-75
2021/05/29 05:38:58;;;;;;;0.40;0.20;;;13.60;99.90;;;;;;5008612;28;20396;-74
2021/05/29 05:41:24;;;;;;;0.40;0.20;;;13.60;99.90;;;;;;5010562;28;20958;-74
2021/05/29 05:43:50;;;;;;;0.40;0.20;;;13.60;99.90;;;;;;5010400;28;20720;-74
2021/05/29 05:46:16;;;;;;;0.40;0.20;;;13.60;99.90;;;;;;4995885;28;20412;-75
2021/05/29 05:48:43;;;;;;;0.40;0.20;;;13.60;99.90;;;;;;5008345;28;20395;-76
2021/05/29 05:51:08;;;;;;;0.40;0.20;;;13.70;99.90;;;;;;5010304;28;20762;-74
2021/05/29 05:53:34;;;;;;;0.40;0.20;;;13.80;99.90;;;;;;5010720;28;20418;-74
2021/05/29 05:56:03;;;;;;;0.40;0.20;;;13.80;99.90;;;;;;5009278;28;20851;-75
2021/05/29 05:58:32;;;;;;;0.40;0.20;;;13.80;99.90;;;;;;5009874;28;20399;-74
2021/05/29 06:00:58;;;;;;;0.40;0.20;;;13.90;99.90;;;;;;5009266;28;20746;-74
2021/05/29 06:03:24;;;;;;;0.40;0.20;;;13.90;99.90;;;;;;5009927;28;20408;-74
2021/05/29 06:05:50;;;;;;;0.40;0.20;;;14.00;99.90;;;;;;5009667;28;20865;-74
2021/05/29 06:08:18;;;;;;;0.40;0.22;;;14.00;99.90;;;;;;5007845;28;20457;-74
2021/05/29 06:10:44;;;;;;;0.40;0.20;;;14.10;99.90;;;;;;5009790;28;20391;-75
2021/05/29 06:13:16;;;;;;;0.40;0.20;;;14.20;99.90;;;;;;4992405;28;20413;-74
2021/05/29 06:21:11;;;;;;;0.40;0.20;;;14.40;99.90;;;;;;5010241;28;20746;-76
2021/05/29 06:23:37;;;;;;;0.40;0.30;;;14.50;99.90;;;;;;5010985;28;20397;-75
2021/05/29 06:26:03;;;;;;;0.40;0.30;;;14.70;99.90;;;;;;5009319;28;20766;-74
2021/05/29 06:28:29;;;;;;;0.40;0.20;;;14.80;99.90;;;;;;5007864;28;20430;-74
2021/05/29 06:30:55;;;;;;;0.40;0.30;;;14.80;99.90;;;;;;5009089;28;20791;-75
2021/05/29 06:33:21;;;;;;;0.40;0.30;;;15.00;97.90;;;;;;5000235;28;20417;-74
2021/05/29 06:35:46;;;;;;;0.40;0.20;;;15.10;98.00;;;;;;5004785;28;20425;-74
2021/05/29 06:38:12;;;;;;;0.40;0.20;;;15.10;98.20;;;;;;5011784;28;20867;-73
2021/05/29 06:40:38;;;;;;;0.40;0.20;;;15.20;95.80;;;;;;5011444;28;20389;-74
2021/05/29 06:43:04;;;;;;;0.40;0.20;;;15.20;95.40;;;;;;4993291;28;20488;-74
2021/05/29 06:45:31;;;;;;;0.40;0.20;;;15.20;96.00;;;;;;5011906;28;20420;-74
2021/05/29 06:47:58;;;;;;;0.40;0.20;;;15.30;95.60;;;;;;5011080;28;20399;-74
2021/05/29 06:50:24;;;;;;;0.40;0.20;;;15.40;95.30;;;;;;5011487;28;20434;-74
2021/05/29 06:52:52;;;;;;;0.40;0.20;;;15.40;94.90;;;;;;5010882;28;20415;-74
2021/05/29 07:00:48;;;;;;;0.40;0.30;;;15.60;94.50;;;;;;5015035;28;20904;-74
2021/05/29 07:03:13;;;;;;;0.40;0.20;;;15.90;92.50;;;;;;5013582;28;20395;-74
2021/05/29 07:05:39;;;;;;;0.40;0.20;;;15.70;93.40;;;;;;5031417;28;20737;-74
2021/05/29 07:08:05;;;;;;;0.40;0.20;;;15.80;93.50;;;;;;5030612;28;20423;-74
2021/05/29 07:10:30;;;;;;;0.40;0.20;;;15.80;93.40;;;;;;5031116;28;20391;-75
2021/05/29 07:12:56;;;;;;;0.40;0.30;;;15.80;93.80;;;;;;5030322;28;20410;-74
2021/05/29 07:15:26;;;;;;;0.40;0.20;;;15.80;92.80;;;;;;5030910;28;20873;-75
2021/05/29 07:17:54;;;;;;;0.40;0.20;;;15.90;93.10;;;;;;5030650;28;20464;-76
2021/05/29 07:20:20;;;;;;;0.40;0.20;;;15.90;92.90;;;;;;5030622;28;20375;-76
2021/05/29 07:22:46;;;;;;;0.40;0.20;;;16.00;93.00;;;;;;5030955;28;20841;-74
2021/05/29 07:25:12;;;;;;;0.40;0.20;;;16.00;92.10;;;;;;5013003;28;20865;-75
2021/05/29 07:27:38;;;;;;;0.40;0.20;;;16.00;91.70;;;;;;5013674;28;20391;-74
2021/05/29 07:30:08;;;;;;;0.40;0.20;;;16.00;92.80;;;;;;5030187;28;20413;-74
2021/05/29 07:32:35;;;;;;;0.40;0.20;;;16.00;94.10;;;;;;5031224;28;20413;-74
2021/05/29 07:35:01;;;;;;;0.40;0.20;;;16.20;92.10;;;;;;5030328;28;20470;-74
2021/05/29 07:37:27;;;;;;;0.40;0.20;;;16.10;92.10;;;;;;5013143;28;20493;-74
2021/05/29 07:39:53;;;;;;;0.40;0.20;;;16.30;92.30;;;;;;5030589;28;20387;-75
2021/05/29 07:42:19;;;;;;;0.40;0.20;;;16.50;91.40;;;;;;5031409;28;20710;-75
2021/05/29 07:44:44;;;;;;;0.80;0.40;;;16.40;91.10;;;;;;5030657;28;20383;-74
2021/05/29 07:47:10;;;;;;;0.40;0.20;;;16.50;91.80;;;;;;5030297;28;20433;-74
2021/05/29 07:49:36;;;;;;;0.40;0.20;;;16.60;91.90;;;;;;5030930;28;20428;-74
2021/05/29 07:52:02;;;;;;;0.40;0.20;;;16.70;90.90;;;;;;5029894;28;20513;-74
2021/05/29 07:54:28;;;;;;;0.40;0.20;;;16.70;90.60;;;;;;5013075;28;20386;-74
2021/05/29 07:56:55;;;;;;;0.40;0.20;;;16.80;90.70;;;;;;5011335;28;21138;-75
2021/05/29 07:59:20;;;;;;;0.40;0.20;;;17.00;90.00;;;;;;5029950;28;20425;-75
2021/05/29 08:01:46;;;;;;;0.40;0.20;;;17.00;90.90;;;;;;5029253;28;20382;-75
2021/05/29 08:04:13;;;;;;;0.60;0.50;;;17.00;87.90;;;;;;5029989;28;20498;-75
2021/05/29 08:06:39;;;;;;;0.40;0.20;;;17.00;88.80;;;;;;5012550;28;20409;-75
2021/05/29 08:09:06;;;;;;;0.40;0.30;;;17.00;86.90;;;;;;5029411;28;20387;-75
2021/05/29 08:11:37;;;;;;;0.40;0.20;;;17.00;86.90;;;;;;5013175;28;20426;-75
2021/05/29 08:14:05;;;;;;;0.40;0.22;;;17.20;86.50;;;;;;5030270;28;20379;-75
2021/05/29 08:16:31;;;;;;;0.40;0.20;;;17.30;86.90;;;;;;5030985;28;20444;-75
2021/05/29 08:18:57;;;;;;;0.40;0.20;;;17.20;85.90;;;;;;5030017;28;20849;-75
2021/05/29 08:21:23;;;;;;;0.40;0.20;;;17.30;87.40;;;;;;5030666;28;20422;-75
2021/05/29 08:23:49;;;;;;;0.40;0.20;;;17.30;86.20;;;;;;5030774;28;20426;-75
2021/05/29 08:26:15;;;;;;;0.40;0.20;;;17.30;85.60;;;;;;5029688;28;20741;-75
2021/05/29 08:28:44;;;;;;;0.40;0.20;;;17.20;84.60;;;;;;5030690;28;20395;-76
2021/05/29 08:31:10;;;;;;;0.40;0.30;;;17.40;83.60;;;;;;5011999;28;20738;-75
2021/05/29 08:33:36;;;;;;;0.40;0.20;;;17.50;83.00;;;;;;5030684;28;20399;-75
2021/05/29 08:36:02;;;;;;;0.40;0.20;;;17.70;80.70;;;;;;5033685;28;20837;-75
2021/05/29 08:38:28;;;;;;;0.40;0.20;;;17.70;82.50;;;;;;5034288;28;20379;-75
2021/05/29 08:40:53;;;;;;;0.40;0.20;;;17.70;81.90;;;;;;5033598;28;20425;-74
2021/05/29 08:43:19;;;;;;;0.40;0.20;;;17.80;83.60;;;;;;5033966;28;20435;-73
2021/05/29 08:45:45;;;;;;;0.40;0.20;;;17.70;80.60;;;;;;5034088;28;20383;-73
2021/05/29 08:48:11;;;;;;;0.40;0.20;;;17.60;82.00;;;;;;5032955;28;20425;-73
2021/05/29 08:50:37;;;;;;;0.40;0.20;;;17.60;80.50;;;;;;5032918;28;20407;-73
2021/05/29 08:53:03;;;;;;;0.40;0.23;;;17.70;80.40;;;;;;5032834;28;20566;-74
2021/05/29 08:55:29;;;;;;;0.40;0.40;;;17.60;81.20;;;;;;5022033;28;20893;-76
2021/05/29 08:57:55;;;;;;;0.40;0.20;;;17.60;82.10;;;;;;5018049;28;20411;-75
2021/05/29 09:00:26;;;;;;;0.40;0.20;;;17.80;79.90;;;;;;5018855;28;20477;-74
2021/05/29 09:02:56;;;;;;;0.40;0.30;;;17.80;80.40;;;;;;5003414;28;20379;-74
2021/05/29 09:05:32;;;;;;;0.40;0.20;;;17.90;80.20;;;;;;5018039;28;20396;-74
2021/05/29 09:08:03;;;;;;;0.40;0.20;;;18.10;79.00;;;;;;5023925;28;20479;-76
2021/05/29 09:10:28;;;;;;;0.40;0.20;;;18.20;80.20;;;;;;5021370;28;20443;-73
2021/05/29 09:13:01;;;;;;;0.40;0.30;;;18.30;77.50;;;;;;5005418;28;20899;-76
2021/05/29 09:15:50;;;;;;;0.40;0.30;;;18.40;79.40;;;;;;5021602;28;20476;-75
2021/05/29 09:18:38;;;;;;;0.40;0.20;;;18.40;78.30;;;;;;5019419;28;20391;-74
2021/05/29 09:21:21;;;;;;;0.40;0.20;;;18.40;78.20;;;;;;5023934;28;20551;-75
2021/05/29 09:23:55;;;;;;;0.40;0.30;;;18.50;78.50;;;;;;5021999;28;20399;-75
2021/05/29 09:26:22;;;;;;;0.40;0.20;;;18.70;77.60;;;;;;4999850;28;20397;-75
2021/05/29 09:28:50;;;;;;;0.40;0.20;;;19.20;77.00;;;;;;5020256;28;20490;-75
2021/05/29 09:31:17;;;;;;;0.40;0.20;;;19.30;77.60;;;;;;5018723;28;20504;-75
2021/05/29 09:33:45;;;;;;;0.40;0.20;;;19.30;74.10;;;;;;5022558;28;20952;-76
2021/05/29 09:36:13;;;;;;;0.40;0.20;;;19.20;76.30;;;;;;5022100;28;20758;-75
2021/05/29 09:38:39;;;;;;;0.40;0.20;;;18.90;76.10;;;;;;5022988;28;20389;-76
2021/05/29 09:41:25;;;;;;;0.40;0.30;;;19.00;79.90;;;;;;5028636;28;20387;-73
2021/05/29 09:44:04;;;;;;;0.40;0.20;;;18.80;74.50;;;;;;4995220;28;20983;-75
2021/05/29 09:46:49;;;;;;;0.40;0.30;;;18.80;75.00;;;;;;5021084;28;20400;-74
2021/05/29 09:49:14;;;;;;;0.40;0.20;;;19.00;76.80;;;;;;5017344;28;20392;-75
2021/05/29 09:51:40;;;;;;;0.40;0.20;;;18.90;73.60;;;;;;5028617;28;20769;-74
2021/05/29 09:54:08;;;;;;;0.40;0.20;;;18.80;73.90;;;;;;5020392;28;20745;-74
2021/05/29 09:56:44;;;;;;;0.40;0.20;;;18.90;72.80;;;;;;5020385;28;20389;-73
2021/05/29 09:59:20;;;;;;;0.40;0.20;;;18.80;72.50;;;;;;5019321;28;20403;-73
2021/05/29 10:01:49;;;;;;;0.40;0.30;;;18.70;73.90;;;;;;5031327;28;20395;-74
2021/05/29 10:04:31;;;;;;;0.40;0.20;;;18.70;72.10;;;;;;5028289;28;20406;-74
2021/05/29 10:07:01;;;;;;;0.40;0.20;;;18.80;71.60;;;;;;5028238;28;20386;-74
2021/05/29 10:09:28;;;;;;;0.40;0.20;;;18.90;71.70;;;;;;5030027;28;20877;-74
2021/05/29 10:11:55;;;;;;;0.40;0.20;;;18.80;71.80;;;;;;5031093;28;20379;-74
2021/05/29 10:14:21;;;;;;;0.40;0.20;;;18.80;70.30;;;;;;5031222;28;20423;-74
2021/05/29 10:16:50;;;;;;;0.40;0.20;;;18.90;70.10;;;;;;5031396;28;20484;-74
2021/05/29 10:19:21;;;;;;;0.40;0.20;;;19.20;67.90;;;;;;5026551;28;20438;-74
2021/05/29 10:21:52;;;;;;;0.40;0.20;;;19.50;70.20;;;;;;5031086;28;20403;-74
2021/05/29 10:24:18;;;;;;;0.40;0.20;;;19.40;68.90;;;;;;5030811;28;20741;-73
2021/05/29 10:26:45;;;;;;;0.40;0.20;;;18.80;66.80;;;;;;5031957;28;20415;-74
2021/05/29 10:29:11;;;;;;;0.40;0.20;;;19.00;69.30;;;;;;5030650;28;20497;-74
2021/05/29 10:31:42;;;;;;;0.40;0.20;;;19.30;71.80;;;;;;5031217;28;20840;-74
2021/05/29 10:34:08;;;;;;;0.40;0.20;;;19.30;72.10;;;;;;5030979;28;20414;-76
2021/05/29 10:36:44;;;;;;;0.40;0.20;;;19.60;69.80;;;;;;5031673;28;20423;-74
2021/05/29 10:39:13;;;;;;;0.40;0.22;;;19.60;65.00;;;;;;5030774;28;20458;-74
2021/05/29 10:41:53;;;;;;;0.40;0.20;;;19.20;67.30;;;;;;5026160;28;20415;-73
2021/05/29 10:44:40;;;;;;;0.40;0.20;;;19.20;67.10;;;;;;5026086;28;20376;-73
2021/05/29 10:47:12;;;;;;;0.40;0.20;;;19.90;66.20;;;;;;5011350;28;20859;-73
2021/05/29 10:49:50;;;;;;;0.40;0.20;;;20.30;68.80;;;;;;5009234;28;21545;-74
2021/05/29 10:52:46;;;;;;;0.40;0.20;;;20.70;67.20;;;;;;4990806;28;20468;-76
2021/05/29 10:55:15;;;;;;;0.40;0.30;;;20.90;63.90;;;;;;5006093;28;20549;-75
2021/05/29 10:58:02;;;;;;;0.40;0.20;;;20.80;59.90;;;;;;5007817;28;20440;-77
2021/05/29 11:00:43;;;;;;;0.40;0.20;;;20.80;65.10;;;;;;4993561;28;20457;-76
2021/05/29 11:03:25;;;;;;;0.40;0.20;;;20.90;64.60;;;;;;5007698;28;20530;-75
2021/05/29 11:06:00;;;;;;;0.40;0.20;;;21.00;61.10;;;;;;5009441;28;20408;-75
2021/05/29 11:08:55;;;;;;;0.40;0.20;;;21.30;65.50;;;;;;5005627;28;20494;-76
2021/05/29 11:14:24;;;;;;;0.40;0.20;;;21.30;58.70;;;;;;4998599;28;20711;-75
2021/05/29 11:16:51;;;;;;;0.40;0.20;;;21.50;62.40;;;;;;5009527;28;20493;-76
2021/05/29 11:19:21;;;;;;;0.40;0.30;;;21.80;62.90;;;;;;4989220;28;20886;-74
2021/05/29 11:22:24;;;;;;;0.40;0.30;;;21.70;59.10;;;;;;5008190;28;20398;-75
2021/05/29 11:24:52;;;;;;;0.40;0.20;;;21.70;59.90;;;;;;4991196;28;20453;-77
2021/05/29 11:27:22;;;;;;;0.40;0.20;;;21.10;58.20;;;;;;5009029;28;20398;-75
2021/05/29 11:29:51;;;;;;;0.40;0.30;;;20.40;56.50;;;;;;5005162;28;20525;-76
2021/05/29 11:33:01;;;;;;;0.40;0.20;;;20.20;60.40;;;;;;5007310;28;20977;-76
2021/05/29 11:35:45;;;;;;;0.40;0.20;;;20.30;58.60;;;;;;5006112;28;20720;-75
2021/05/29 11:38:25;;;;;;;0.40;0.30;;;21.00;59.00;;;;;;4987037;28;20453;-76
2021/05/29 11:41:03;;;;;;;0.40;0.20;;;22.00;55.80;;;;;;4989121;28;20419;-75
2021/05/29 11:43:49;;;;;;;0.40;0.20;;;23.20;56.20;;;;;;5009826;28;20391;-75
2021/05/29 11:46:19;;;;;;;0.40;0.20;;;22.90;53.10;;;;;;5030448;28;21021;-75
2021/05/29 11:48:56;;;;;;;0.40;0.30;;;22.40;53.50;;;;;;5030742;28;20390;-75
2021/05/29 11:51:24;;;;;;;0.40;0.30;;;21.90;56.10;;;;;;5029274;28;20406;-75
2021/05/29 11:54:04;;;;;;;0.40;0.30;;;21.80;55.80;;;;;;5029763;28;20414;-76
2021/05/29 11:56:38;;;;;;;0.40;0.30;;;22.40;52.20;;;;;;5011062;28;20474;-75
2021/05/29 11:59:07;;;;;;;0.40;0.30;;;22.90;51.50;;;;;;5029973;28;20391;-75
2021/05/29 12:01:38;;;;;;;0.40;0.30;;;24.00;54.10;;;;;;5019268;28;20397;-75
2021/05/29 12:04:16;;;;;;;0.40;0.20;;;24.40;53.20;;;;;;5010642;28;20408;-75
2021/05/29 12:06:45;;;;;;;0.40;0.20;;;24.30;53.00;;;;;;4992711;28;20389;-76
2021/05/29 12:09:18;;;;;;;0.40;0.20;;;22.60;50.70;;;;;;5010637;28;20392;-74
2021/05/29 12:11:47;;;;;;;0.40;0.30;;;22.00;51.30;;;;;;5014697;28;20411;-73
2021/05/29 12:14:14;;;;;;;0.40;0.20;;;21.60;53.90;;;;;;5013066;28;20412;-74
2021/05/29 12:16:48;;;;;;;0.40;0.20;;;22.70;52.20;;;;;;5013956;28;20468;-73
2021/05/29 12:19:55;;;;;;;0.40;0.20;;;23.40;47.00;;;;;;5013484;28;20376;-74
2021/05/29 12:22:23;;;;;;;0.40;0.20;;;23.80;47.50;;;;;;4965302;28;20418;-74
2021/05/29 12:24:58;;;;;;;0.40;0.30;;;23.60;45.90;;;;;;5013775;28;20385;-72
2021/05/29 12:27:30;;;;;;;0.40;0.30;;;22.60;46.20;;;;;;5012781;28;20417;-73
2021/05/29 12:30:00;;;;;;;0.40;0.20;;;22.90;47.40;;;;;;4995522;28;20423;-75
2021/05/29 12:32:43;;;;;;;0.40;0.20;;;23.00;50.30;;;;;;5012622;28;20424;-73
2021/05/29 12:35:27;;;;;;;0.40;0.20;;;22.70;49.00;;;;;;5013724;28;20389;-79
2021/05/29 12:37:52;;;;;;;0.40;0.20;;;23.40;50.90;;;;;;4996425;28;20887;-73
2021/05/29 12:40:18;;;;;;;0.40;0.20;;;22.40;46.80;;;;;;5013275;28;20388;-72
2021/05/29 12:42:47;;;;;;;0.40;0.20;;;21.70;47.70;;;;;;5014188;28;20394;-73
2021/05/29 12:45:17;;;;;;;0.40;0.20;;;21.20;52.90;;;;;;4995908;28;20393;-73
2021/05/29 12:48:06;;;;;;;0.40;0.20;;;20.80;53.00;;;;;;4994176;28;20411;-74
2021/05/29 12:50:38;;;;;;;0.40;0.25;;;20.70;53.60;;;;;;5011639;28;20415;-74
2021/05/29 12:53:15;;;;;;;0.40;0.30;;;21.50;50.80;;;;;;5009912;28;20565;-74
2021/05/29 12:55:46;;;;;;;0.47;0.28;;;22.50;48.90;;;;;;5008731;28;20464;-75
2021/05/29 12:58:21;;;;;;;0.40;0.20;;;22.20;49.00;;;;;;4988736;28;21750;-78
2021/05/29 13:09:41;;;;;;;0.40;0.30;;;21.30;52.40;;;;;;5010158;28;20408;-76
2021/05/29 13:12:14;;;;;;;0.40;0.30;;;21.30;52.40;;;;;;4990596;28;20430;-75
2021/05/29 13:14:42;;;;;;;0.40;0.20;;;21.70;55.00;;;;;;5010607;28;20387;-75
2021/05/29 13:17:12;;;;;;;0.40;0.20;;;22.20;50.60;;;;;;4989704;28;20417;-76
2021/05/29 13:20:00;;;;;;;0.40;0.30;;;22.70;52.80;;;;;;5009176;28;20889;-77